createdAt,value
2023-01-26T00:01:00.476Z,71.67
2023-01-26T00:04:04.821Z,71.58
2023-01-26T00:07:10.543Z,70.96
2023-01-26T00:10:15.499Z,70.95
2023-01-26T00:13:22.871Z,71.10
2023-01-26T00:16:27.811Z,70.88
2023-01-26T00:19:31.979Z,71.09
2023-01-26T00:22:37.606Z,70.44
2023-01-26T00:25:42.004Z,70.52
2023-01-26T00:28:46.349Z,70.40
2023-01-26T00:31:50.488Z,70.51
2023-01-26T00:34:54.823Z,70.89
2023-01-26T00:38:00.409Z,70.61
2023-01-26T00:41:04.885Z,70.50
2023-01-26T00:44:09.134Z,70.94
2023-01-26T00:47:14.856Z,70.97
2023-01-26T00:50:19.729Z,70.93
2023-01-26T00:53:25.263Z,70.51
2023-01-26T00:56:30.765Z,70.45
2023-01-26T00:59:36.377Z,70.48
2023-01-26T01:02:40.526Z,69.98
2023-01-26T01:05:44.739Z,70.12
2023-01-26T01:08:51.122Z,68.98
2023-01-26T01:11:55.276Z,69.55
2023-01-26T01:14:59.442Z,70.20
2023-01-26T01:18:03.488Z,70.99
2023-01-26T01:21:09.071Z,70.49
2023-01-26T01:24:14.747Z,69.98
2023-01-26T01:27:19.375Z,69.91
2023-01-26T01:30:23.628Z,69.33
2023-01-26T01:33:27.990Z,69.08
2023-01-26T01:36:32.115Z,69.33
2023-01-26T01:39:37.669Z,68.36
2023-01-26T01:42:48.705Z,69.17
2023-01-26T01:45:53.768Z,67.20
2023-01-26T01:49:02.600Z,68.18
2023-01-26T01:52:11.589Z,68.15
2023-01-26T01:55:18.459Z,68.21
2023-01-26T01:58:23.026Z,69.06
2023-01-26T02:01:28.152Z,69.18
2023-01-26T02:04:32.330Z,69.20
2023-01-26T02:07:41.216Z,69.48
2023-01-26T02:10:49.376Z,71.00
2023-01-26T02:13:54.232Z,71.37
2023-01-26T02:16:58.290Z,70.39
2023-01-26T02:20:09.059Z,70.60
2023-01-26T02:23:26.623Z,70.63
2023-01-26T02:26:34.979Z,70.92
2023-01-26T02:29:40.190Z,69.17
2023-01-26T02:32:44.206Z,68.73
2023-01-26T02:35:48.233Z,68.89
2023-01-26T02:39:00.829Z,68.70
2023-01-26T02:42:23.655Z,68.78
2023-01-26T02:45:29.579Z,68.55
2023-01-26T02:48:52.102Z,68.23
2023-01-26T02:51:56.207Z,69.11
2023-01-26T02:55:18.148Z,69.19
2023-01-26T02:58:23.879Z,69.10
2023-01-26T03:01:28.001Z,69.90
2023-01-26T03:04:32.114Z,69.82
2023-01-26T03:07:36.645Z,70.03
2023-01-26T03:10:40.986Z,69.69
2023-01-26T03:13:46.453Z,68.58
2023-01-26T03:16:50.304Z,68.96
2023-01-26T03:20:11.840Z,69.45
2023-01-26T03:23:32.489Z,68.39
2023-01-26T03:26:54.718Z,68.41
2023-01-26T03:30:00.653Z,69.41
2023-01-26T03:33:04.569Z,69.28
2023-01-26T03:36:10.125Z,69.13
2023-01-26T03:39:35.631Z,69.09
2023-01-26T03:42:57.389Z,69.69
2023-01-26T03:46:21.949Z,70.11
2023-01-26T03:49:43.117Z,71.18
2023-01-26T03:53:04.729Z,71.53
2023-01-26T03:56:22.268Z,70.96
2023-01-26T03:59:39.383Z,70.84
2023-01-26T04:03:07.747Z,70.85
2023-01-26T04:06:29.760Z,70.02
2023-01-26T04:09:34.740Z,70.62
2023-01-26T04:12:38.749Z,70.83
2023-01-26T04:16:11.386Z,70.07
2023-01-26T04:19:34.438Z,69.35
2023-01-26T04:22:43.886Z,70.20
2023-01-26T04:25:49.788Z,70.27
2023-01-26T04:28:54.429Z,69.59
2023-01-26T04:31:58.498Z,69.82
2023-01-26T04:35:05.975Z,69.40
2023-01-26T04:38:11.409Z,69.32
2023-01-26T04:41:19.142Z,69.50
2023-01-26T04:44:28.377Z,70.17
2023-01-26T04:47:32.803Z,70.41
2023-01-26T04:50:38.559Z,69.74
2023-01-26T04:53:42.925Z,69.63
2023-01-26T04:56:47.407Z,70.31
2023-01-26T04:59:52.461Z,69.97
2023-01-26T05:02:57.685Z,71.06
2023-01-26T05:06:03.409Z,70.90
2023-01-26T05:09:08.235Z,70.03
2023-01-26T05:12:31.655Z,70.78
2023-01-26T05:16:09.276Z,70.77
2023-01-26T05:19:30.633Z,71.00
2023-01-26T05:22:48.249Z,70.63
2023-01-26T05:26:15.488Z,71.12
2023-01-26T05:29:41.395Z,71.46
2023-01-26T05:32:45.581Z,72.49
2023-01-26T05:35:51.165Z,73.00
2023-01-26T05:38:58.047Z,72.83
2023-01-26T05:42:04.116Z,72.29
2023-01-26T05:45:34.321Z,71.87
2023-01-26T05:48:39.066Z,71.94
2023-01-26T05:51:43.955Z,72.02
2023-01-26T05:54:50.140Z,72.67
2023-01-26T05:57:55.104Z,72.76
2023-01-26T06:00:59.740Z,73.35
2023-01-26T06:04:08.158Z,72.57
2023-01-26T06:07:18.921Z,72.51
2023-01-26T06:10:47.166Z,72.32
2023-01-26T06:14:06.207Z,72.39
2023-01-26T06:17:10.943Z,72.66
2023-01-26T06:20:17.730Z,74.08
2023-01-26T06:23:32.271Z,73.82
2023-01-26T06:26:40.963Z,73.92
2023-01-26T06:29:47.743Z,73.94
2023-01-26T06:32:53.148Z,74.62
2023-01-26T06:35:58.776Z,75.43
2023-01-26T06:39:03.054Z,75.07
2023-01-26T06:42:10.023Z,75.88
2023-01-26T06:45:15.965Z,76.63
2023-01-26T06:48:20.600Z,75.93
2023-01-26T06:51:49.595Z,76.47
2023-01-26T06:54:54.428Z,77.61
2023-01-26T06:58:32.257Z,76.98
2023-01-26T07:01:48.819Z,77.68
2023-01-26T07:04:53.851Z,77.29
2023-01-26T07:08:00.715Z,76.82
2023-01-26T07:11:06.765Z,78.12
2023-01-26T07:14:14.029Z,78.85
2023-01-26T07:17:18.430Z,79.13
2023-01-26T07:20:22.623Z,77.80
2023-01-26T07:23:26.822Z,77.38
2023-01-26T07:26:30.986Z,78.62
2023-01-26T07:29:36.571Z,77.08
2023-01-26T07:32:40.744Z,77.06
2023-01-26T07:35:45.094Z,76.49
2023-01-26T07:38:49.186Z,76.49
2023-01-26T07:41:53.520Z,76.18
2023-01-26T07:45:25.429Z,76.46
2023-01-26T07:48:30.314Z,77.70
2023-01-26T07:51:34.983Z,77.27
2023-01-26T07:54:39.324Z,78.05
2023-01-26T07:57:43.900Z,79.40
2023-01-26T08:00:49.620Z,79.96
2023-01-26T08:03:54.744Z,80.64
2023-01-26T08:06:58.952Z,80.43
2023-01-26T08:10:03.392Z,79.66
2023-01-26T08:13:07.404Z,80.38
2023-01-26T08:16:13.898Z,81.78
2023-01-26T08:19:18.460Z,84.09
2023-01-26T08:22:22.714Z,84.55
2023-01-26T08:25:26.987Z,86.37
2023-01-26T08:28:31.145Z,84.80
2023-01-26T08:31:36.751Z,85.63
2023-01-26T08:34:41.003Z,86.29
2023-01-26T08:37:45.228Z,85.91
2023-01-26T08:40:54.973Z,87.23
2023-01-26T08:43:59.945Z,86.41
2023-01-26T08:47:05.664Z,85.92
2023-01-26T08:50:11.267Z,85.54
2023-01-26T08:53:15.600Z,85.07
2023-01-26T08:56:19.786Z,84.29
2023-01-26T08:59:23.903Z,86.33
2023-01-26T09:02:29.756Z,86.77
2023-01-26T09:05:36.417Z,87.34
2023-01-26T09:08:40.713Z,86.83
2023-01-26T09:11:44.959Z,87.07
2023-01-26T09:14:49.150Z,87.16
2023-01-26T09:17:55.014Z,87.82
2023-01-26T09:21:04.914Z,88.63
2023-01-26T09:24:09.803Z,87.75
2023-01-26T09:27:14.026Z,88.21
2023-01-26T09:30:19.242Z,88.61
2023-01-26T09:33:25.699Z,87.48
2023-01-26T09:36:29.786Z,88.28
2023-01-26T09:39:34.005Z,87.57
2023-01-26T09:42:50.418Z,87.35
2023-01-26T09:46:02.728Z,86.90
2023-01-26T09:49:11.994Z,85.88
2023-01-26T09:52:22.591Z,85.09
2023-01-26T09:55:27.046Z,85.42
2023-01-26T09:58:37.754Z,86.99
2023-01-26T10:01:47.562Z,87.43
2023-01-26T10:04:58.254Z,86.52
2023-01-26T10:08:02.632Z,86.26
2023-01-26T10:11:14.656Z,87.24
2023-01-26T10:14:30.981Z,86.48
2023-01-26T10:17:39.256Z,85.48
2023-01-26T10:20:49.725Z,86.98
2023-01-26T10:23:54.541Z,86.51
2023-01-26T10:26:59.994Z,86.25
2023-01-26T10:30:04.214Z,86.83
2023-01-26T10:33:17.102Z,87.11
2023-01-26T10:36:23.753Z,87.57
2023-01-26T10:39:27.903Z,88.91
2023-01-26T10:42:34.400Z,86.96
2023-01-26T10:45:47.414Z,88.88
2023-01-26T10:48:53.795Z,87.64
2023-01-26T10:52:10.357Z,87.27
2023-01-26T10:55:21.971Z,88.21
2023-01-26T10:58:49.020Z,87.35
2023-01-26T11:01:54.515Z,86.46
2023-01-26T11:05:17.565Z,86.03
2023-01-26T11:08:38.503Z,85.61
2023-01-26T11:11:42.859Z,86.64
2023-01-26T11:15:02.177Z,86.03
2023-01-26T11:18:14.886Z,84.77
2023-01-26T11:21:22.287Z,84.77
2023-01-26T11:24:32.554Z,86.63
2023-01-26T11:27:51.581Z,84.81
2023-01-26T11:31:12.165Z,85.25
2023-01-26T11:34:28.391Z,85.12
2023-01-26T11:37:44.298Z,85.30
2023-01-26T11:40:59.765Z,89.30
2023-01-26T11:44:32.382Z,87.28
2023-01-26T11:47:54.785Z,86.21
2023-01-26T11:51:07.345Z,86.21
2023-01-26T11:54:27.898Z,86.39
2023-01-26T11:57:39.474Z,86.44
2023-01-26T12:00:46.105Z,86.94
2023-01-26T12:03:51.919Z,85.74
2023-01-26T12:07:03.434Z,86.39
2023-01-26T12:10:10.105Z,87.19
2023-01-26T12:13:26.084Z,86.07
2023-01-26T12:16:40.818Z,86.35
2023-01-26T12:19:53.372Z,85.80
2023-01-26T12:23:05.075Z,85.44
2023-01-26T12:26:12.325Z,84.77
2023-01-26T12:29:25.881Z,84.86
2023-01-26T12:32:30.017Z,87.15
2023-01-26T12:35:47.286Z,87.38
2023-01-26T12:39:13.980Z,87.21
2023-01-26T12:42:25.813Z,86.53
2023-01-26T12:45:36.523Z,86.20
2023-01-26T12:48:45.201Z,87.59
2023-01-26T12:51:54.516Z,87.96
2023-01-26T12:55:03.810Z,87.59
2023-01-26T12:58:16.680Z,86.36
2023-01-26T13:01:24.583Z,87.13
2023-01-26T13:04:29.057Z,85.95
2023-01-26T13:07:36.363Z,87.74
2023-01-26T13:10:50.216Z,87.60
2023-01-26T13:13:56.355Z,86.70
2023-01-26T13:17:40.533Z,87.09
2023-01-26T13:20:49.975Z,85.77
2023-01-26T13:23:54.296Z,87.21
2023-01-26T13:27:00.143Z,87.21
2023-01-26T13:30:05.806Z,87.98
2023-01-26T13:33:28.977Z,87.93
2023-01-26T13:36:38.422Z,89.49
2023-01-26T13:39:46.283Z,88.74
2023-01-26T13:42:56.857Z,89.15
2023-01-26T13:46:12.082Z,88.78
2023-01-26T13:49:28.481Z,88.18
2023-01-26T13:52:32.642Z,88.81
2023-01-26T13:55:42.567Z,89.13
2023-01-26T13:58:46.782Z,88.82
2023-01-26T14:01:52.782Z,89.33
2023-01-26T14:04:59.765Z,87.86
2023-01-26T14:08:04.926Z,88.19
2023-01-26T14:11:19.065Z,87.84
2023-01-26T14:14:27.469Z,88.05
2023-01-26T14:17:33.302Z,87.76
2023-01-26T14:20:41.660Z,87.89
2023-01-26T14:23:45.877Z,87.74
2023-01-26T14:26:50.706Z,87.36
2023-01-26T14:29:56.195Z,87.10
2023-01-26T14:33:05.714Z,89.75
2023-01-26T14:36:18.132Z,89.35
2023-01-26T14:39:23.362Z,88.29
2023-01-26T14:42:28.074Z,87.62
2023-01-26T14:45:33.983Z,87.50
2023-01-26T14:48:43.482Z,87.56
2023-01-26T14:51:54.903Z,87.83
2023-01-26T14:55:04.790Z,87.69
2023-01-26T14:58:17.993Z,87.35
2023-01-26T15:01:24.276Z,86.60
2023-01-26T15:04:36.515Z,85.68
2023-01-26T15:07:45.547Z,86.19
2023-01-26T15:11:16.992Z,86.90
2023-01-26T15:14:37.846Z,85.57
2023-01-26T15:17:44.106Z,85.88
2023-01-26T15:21:00.827Z,85.57
2023-01-26T15:24:07.737Z,86.15
2023-01-26T15:27:14.603Z,86.13
2023-01-26T15:30:20.199Z,86.74
2023-01-26T15:33:51.318Z,86.11
2023-01-26T15:36:57.946Z,86.41
2023-01-26T15:40:04.431Z,86.15
2023-01-26T15:43:18.446Z,87.28
2023-01-26T15:46:22.618Z,88.04
2023-01-26T15:49:27.259Z,87.06
2023-01-26T15:52:31.793Z,86.94
2023-01-26T15:55:38.472Z,86.60
2023-01-26T15:58:42.909Z,86.42
2023-01-26T16:01:47.322Z,86.58
2023-01-26T16:04:51.531Z,87.10
2023-01-26T16:07:55.571Z,87.66
2023-01-26T16:11:01.243Z,88.34
2023-01-26T16:14:05.625Z,88.06
2023-01-26T16:17:15.855Z,87.95
2023-01-26T16:20:20.772Z,88.09
2023-01-26T16:23:27.701Z,89.08
2023-01-26T16:26:34.312Z,89.07
2023-01-26T16:29:38.597Z,88.32
2023-01-26T16:32:45.011Z,88.61
2023-01-26T16:35:49.349Z,87.58
2023-01-26T16:38:53.576Z,87.96
2023-01-26T16:41:59.272Z,87.37
2023-01-26T16:45:03.582Z,88.94
2023-01-26T16:48:14.215Z,89.58
2023-01-26T16:51:25.029Z,88.61
2023-01-26T16:54:29.302Z,88.13
2023-01-26T16:57:34.886Z,87.99
2023-01-26T17:00:39.641Z,88.14
2023-01-26T17:03:43.905Z,88.82
2023-01-26T17:06:48.452Z,88.82
2023-01-26T17:09:52.700Z,89.75
2023-01-26T17:12:58.455Z,88.51
2023-01-26T17:16:02.649Z,88.77
2023-01-26T17:19:09.088Z,88.29
2023-01-26T17:22:13.486Z,88.84
2023-01-26T17:25:18.635Z,89.04
2023-01-26T17:28:24.468Z,88.72
2023-01-26T17:31:28.993Z,89.04
2023-01-26T17:34:33.182Z,89.22
2023-01-26T17:37:37.908Z,89.33
2023-01-26T17:40:42.013Z,89.34
2023-01-26T17:43:48.404Z,90.11
2023-01-26T17:46:52.541Z,89.55
2023-01-26T17:49:56.960Z,90.81
2023-01-26T17:53:01.122Z,90.80
2023-01-26T17:56:08.265Z,89.65
2023-01-26T17:59:14.359Z,89.53
2023-01-26T18:02:18.551Z,89.85
2023-01-26T18:05:22.812Z,91.18
2023-01-26T18:08:27.514Z,90.68
2023-01-26T18:11:31.582Z,90.25
2023-01-26T18:14:37.163Z,90.04
2023-01-26T18:17:41.278Z,91.03
2023-01-26T18:20:45.456Z,90.65
2023-01-26T18:23:51.408Z,89.87
2023-01-26T18:26:55.613Z,91.26
2023-01-26T18:30:01.329Z,90.54
2023-01-26T18:33:05.513Z,91.26
2023-01-26T18:36:12.277Z,91.68
2023-01-26T18:39:17.740Z,90.59
2023-01-26T18:42:21.963Z,91.07
2023-01-26T18:45:27.708Z,91.13
2023-01-26T18:48:32.250Z,91.31
2023-01-26T18:51:37.790Z,91.40
2023-01-26T18:54:43.056Z,91.75
2023-01-26T18:57:48.721Z,91.15
2023-01-26T19:00:54.388Z,91.96
2023-01-26T19:03:59.163Z,91.50
2023-01-26T19:07:03.471Z,92.65
2023-01-26T19:10:08.659Z,91.98
2023-01-26T19:13:13.520Z,92.38
2023-01-26T19:16:19.279Z,92.29
2023-01-26T19:19:23.683Z,91.64
2023-01-26T19:22:27.871Z,91.02
2023-01-26T19:25:32.609Z,90.19
2023-01-26T19:28:36.863Z,90.60
2023-01-26T19:31:43.107Z,90.40
2023-01-26T19:34:47.100Z,90.80
2023-01-26T19:37:51.585Z,90.16
2023-01-26T19:40:55.816Z,90.44
2023-01-26T19:44:00.003Z,92.06
2023-01-26T19:47:05.715Z,91.25
2023-01-26T19:50:11.007Z,91.20
2023-01-26T19:53:15.155Z,91.55
2023-01-26T19:56:21.579Z,92.09
2023-01-26T19:59:27.718Z,92.20
2023-01-26T20:02:33.338Z,92.42
2023-01-26T20:05:38.515Z,93.19
2023-01-26T20:08:42.725Z,93.38
2023-01-26T20:11:47.045Z,92.98
2023-01-26T20:14:51.799Z,93.45
2023-01-26T20:17:57.515Z,93.67
2023-01-26T20:21:01.646Z,92.74
2023-01-26T20:24:06.897Z,91.63
2023-01-26T20:27:11.420Z,93.38
2023-01-26T20:30:17.108Z,92.97
2023-01-26T20:33:22.965Z,91.95
2023-01-26T20:36:29.537Z,92.56
2023-01-26T20:39:34.754Z,94.17
2023-01-26T20:42:39.440Z,93.52
2023-01-26T20:45:43.853Z,92.94
2023-01-26T20:48:49.894Z,93.20
2023-01-26T20:51:54.072Z,91.48
2023-01-26T20:54:58.210Z,93.68
2023-01-26T20:58:03.446Z,92.01
2023-01-26T21:01:10.749Z,91.53
2023-01-26T21:04:17.164Z,91.94
2023-01-26T21:07:21.505Z,92.18
2023-01-26T21:10:25.681Z,93.53
2023-01-26T21:13:30.107Z,94.14
2023-01-26T21:16:36.343Z,94.30
2023-01-26T21:19:42.189Z,94.76
2023-01-26T21:22:46.236Z,95.49
2023-01-26T21:25:50.469Z,94.24
2023-01-26T21:28:56.023Z,93.70
2023-01-26T21:32:00.206Z,93.41
2023-01-26T21:35:06.445Z,92.97
2023-01-26T21:38:10.618Z,93.44
2023-01-26T21:41:34.813Z,94.04
2023-01-26T21:44:58.926Z,93.58
2023-01-26T21:48:20.168Z,93.79
2023-01-26T21:51:43.726Z,94.99
2023-01-26T21:54:47.910Z,94.72
2023-01-26T21:58:09.266Z,94.29
2023-01-26T22:01:13.460Z,94.13
2023-01-26T22:04:19.394Z,94.33
2023-01-26T22:07:25.063Z,95.02
2023-01-26T22:10:29.144Z,96.31
2023-01-26T22:13:33.426Z,97.33
2023-01-26T22:16:37.738Z,97.25
2023-01-26T22:19:42.116Z,96.23
2023-01-26T22:22:47.825Z,96.83
2023-01-26T22:25:52.098Z,96.48
2023-01-26T22:28:57.751Z,97.13
2023-01-26T22:32:03.049Z,97.78
2023-01-26T22:35:07.848Z,96.59
2023-01-26T22:38:13.511Z,97.89
2023-01-26T22:41:19.918Z,96.98
2023-01-26T22:44:24.077Z,96.45
2023-01-26T22:47:28.555Z,95.84
2023-01-26T22:50:32.849Z,95.82
2023-01-26T22:53:38.612Z,96.53
2023-01-26T22:56:42.780Z,96.28
2023-01-26T22:59:46.878Z,95.73
2023-01-26T23:02:51.104Z,95.29
2023-01-26T23:06:00.982Z,97.24
2023-01-26T23:09:06.717Z,97.40
2023-01-26T23:12:10.900Z,97.33
2023-01-26T23:15:15.055Z,97.18
2023-01-26T23:18:19.289Z,97.12
2023-01-26T23:21:24.094Z,96.40
2023-01-26T23:24:29.898Z,96.09
2023-01-26T23:27:34.024Z,95.67
2023-01-26T23:30:38.272Z,96.13
2023-01-26T23:33:42.506Z,96.11
2023-01-26T23:36:46.694Z,96.60
2023-01-26T23:39:52.363Z,96.62
2023-01-26T23:43:14.370Z,95.73
2023-01-26T23:46:20.676Z,95.80
2023-01-26T23:49:24.958Z,94.75
2023-01-26T23:52:28.940Z,94.48
2023-01-26T23:55:35.311Z,94.45
2023-01-26T23:58:39.655Z,93.34
